(°C)
21°
23°
25°
26°
27°
28°
28°
(°C)
22°
24°
25°
26°
27°
27°
27°
СЗ
СВ
В
В
ВЮВ
ВЮВ
ВЮВ
(км/ч)
5-9
6-15
11-16
13-23
16-25
18-31
19-33
(мм)
0
0
0
0
0
0
0
(%)
0
0
0
0
0
0
0

Высота солнцестояния

/ 24.2°
sun-icon
UV 6
07:48
20:09
Растущая луна (161°)
19:48
05:55

METAR для Алькантарилья (LERI)

Время Условия Температура/
Точка росы
Ветер Видимость Погода Облачность Давление Изменить Необработанный
VFR 23°C / 12°C variable 0kt >10km - Few Clouds 2300ft 1018 No Significant change LERI 190730Z 00000KT 9999 FEW023 SCT030 23/12 Q1018 NOSIG
VFR 21°C / 14°C 220º 2kt >10km - Few Clouds 2100ft 1018 No Significant change LERI 190700Z 22002KT 9999 FEW021 SCT030 21/14 Q1018 NOSIG
MVFR 19°C / 13°C 190º variable 170º to 240º 3kt >10km - Few Clouds 1900ft 1017 No Significant change LERI 190630Z 19003KT 170V240 9999 FEW019 BKN023 19/13 Q1017 NOSIG
VFR 18°C / 14°C 270º variable 210º to 310º 3kt >10km - Few Clouds 1800ft 1017 No Significant change LERI 190600Z 27003KT 210V310 9999 FEW018 SCT023 BKN031 18/14 Q1017 NOSIG
VFR 27°C / 17°C 240º variable 200º to 290º 6kt >10km - Few Clouds 4200ft 1012 No Significant change LERI 181800Z 24006KT 200V290 9999 FEW042 27/17 Q1012 NOSIG
VFR 28°C / 17°C 240º variable 210º to 270º 9kt >10km - Few Clouds 4200ft 1012 No Significant change LERI 181730Z 24009KT 210V270 9999 FEW042 28/17 Q1012 NOSIG
VFR 29°C / 17°C 230º variable 200º to 260º 10kt >10km - Few Clouds 4200ft 1011 No Significant change LERI 181700Z 23010KT 200V260 9999 FEW042 29/17 Q1011 NOSIG
VFR 30°C / 17°C 230º variable 190º to 260º 9kt >10km - Few Clouds 4300ft 1011 No Significant change LERI 181630Z 23009KT 190V260 9999 FEW043 30/17 Q1011 NOSIG
VFR 30°C / 17°C 240º variable 200º to 280º 11kt >10km - Few Clouds 4500ft 1011 No Significant change LERI 181600Z 24011KT 200V280 9999 FEW045 30/17 Q1011 NOSIG
VFR 31°C / 17°C 250º variable 230º to 290º 10kt >10km - Few Clouds 4500ft 1011 No Significant change LERI 181530Z 25010KT 230V290 9999 FEW045 31/17 Q1011 NOSIG
VFR 32°C / 16°C 240º variable 200º to 270º 11kt >10km - Few Clouds 4800ft 1011 No Significant change LERI 181500Z 24011KT 200V270 9999 FEW048 32/16 Q1011 NOSIG
VFR 33°C / 16°C 160º variable 080º to 250º 7kt >10km - Few Clouds 4500ft 1011 No Significant change LERI 181430Z 16007KT 080V250 9999 FEW045 33/16 Q1011 NOSIG
VFR 32°C / 16°C 130º variable 070º to 170º 9kt >10km - Few Clouds 4500ft 1012 No Significant change LERI 181400Z 13009KT 070V170 9999 FEW045 32/16 Q1012 NOSIG
VFR 33°C / 16°C 130º variable 060º to 170º 6kt Gust 16kt >10km - Few Clouds 4200ft 1012 No Significant change LERI 181330Z 13006G16KT 060V170 9999 FEW042 33/16 Q1012 NOSIG
VFR 33°C / 16°C 100º variable 030º to 170º 7kt >10km - Few Clouds 3800ft 1012 No Significant change LERI 181300Z 10007KT 030V170 9999 FEW038 33/16 Q1012 NOSIG
VFR 32°C / 15°C 40º 2kt >10km - Few Clouds 3800ft 1013 No Significant change LERI 181230Z 04002KT 9999 FEW038 32/15 Q1013 NOSIG
VFR 31°C / 15°C variable 3kt >10km - Few Clouds 4000ft 1013 No Significant change LERI 181200Z VRB03KT 9999 FEW040 31/15 Q1013 NOSIG
VFR 30°C / 15°C variable 2kt >10km - Few Clouds 4000ft 1013 No Significant change LERI 181130Z VRB02KT 9999 FEW040 30/15 Q1013 NOSIG
VFR 29°C / 15°C 130º 2kt >10km - Few Clouds 3800ft 1014 No Significant change LERI 181100Z 13002KT 9999 FEW038 29/15 Q1014 NOSIG
VFR 28°C / 15°C variable 3kt >10km - Few Clouds 3800ft 1014 No Significant change LERI 181030Z VRB03KT 9999 FEW038 28/15 Q1014 NOSIG
VFR 27°C / 15°C variable 1kt >10km - Few Clouds 3600ft 1014 No Significant change LERI 181000Z VRB01KT 9999 FEW036 27/15 Q1014 NOSIG
VFR 26°C / 16°C variable 2kt >10km - Few Clouds 4400ft 1015 No Significant change LERI 180930Z VRB02KT 9999 FEW044 26/16 Q1015 NOSIG
VFR 25°C / 17°C variable 2kt >10km - Few Clouds 4200ft 1015 No Significant change LERI 180900Z VRB02KT 9999 FEW042TCU 25/17 Q1015 NOSIG
VFR 24°C / 17°C variable 1kt >10km - Few Clouds 4200ft 1014 No Significant change LERI 180830Z VRB01KT 9999 FEW042TCU 24/17 Q1014 NOSIG

VFR

23°C / 12°C

[Больше]
Ветер variable 0kt
Видимость >10km
Погода -
Облачность Few Clouds 2300ft
Давление 1018
Изменить No Significant change
Необработанный LERI 190730Z 00000KT 9999 FEW023 SCT030 23/12 Q1018 NOSIG

VFR

21°C / 14°C

[Больше]
Ветер 220º 2kt
Видимость >10km
Погода -
Облачность Few Clouds 2100ft
Давление 1018
Изменить No Significant change
Необработанный LERI 190700Z 22002KT 9999 FEW021 SCT030 21/14 Q1018 NOSIG

MVFR

19°C / 13°C

[Больше]
Ветер 190º variable 170º to 240º 3kt
Видимость >10km
Погода -
Облачность Few Clouds 1900ft
Давление 1017
Изменить No Significant change
Необработанный LERI 190630Z 19003KT 170V240 9999 FEW019 BKN023 19/13 Q1017 NOSIG

VFR

18°C / 14°C

[Больше]
Ветер 270º variable 210º to 310º 3kt
Видимость >10km
Погода -
Облачность Few Clouds 1800ft
Давление 1017
Изменить No Significant change
Необработанный LERI 190600Z 27003KT 210V310 9999 FEW018 SCT023 BKN031 18/14 Q1017 NOSIG

VFR

27°C / 17°C

[Больше]
Ветер 240º variable 200º to 290º 6kt
Видимость >10km
Погода -
Облачность Few Clouds 4200ft
Давление 1012
Изменить No Significant change
Необработанный LERI 181800Z 24006KT 200V290 9999 FEW042 27/17 Q1012 NOSIG

VFR

28°C / 17°C

[Больше]
Ветер 240º variable 210º to 270º 9kt
Видимость >10km
Погода -
Облачность Few Clouds 4200ft
Давление 1012
Изменить No Significant change
Необработанный LERI 181730Z 24009KT 210V270 9999 FEW042 28/17 Q1012 NOSIG

VFR

29°C / 17°C

[Больше]
Ветер 230º variable 200º to 260º 10kt
Видимость >10km
Погода -
Облачность Few Clouds 4200ft
Давление 1011
Изменить No Significant change
Необработанный LERI 181700Z 23010KT 200V260 9999 FEW042 29/17 Q1011 NOSIG

VFR

30°C / 17°C

[Больше]
Ветер 230º variable 190º to 260º 9kt
Видимость >10km
Погода -
Облачность Few Clouds 4300ft
Давление 1011
Изменить No Significant change
Необработанный LERI 181630Z 23009KT 190V260 9999 FEW043 30/17 Q1011 NOSIG

VFR

30°C / 17°C

[Больше]
Ветер 240º variable 200º to 280º 11kt
Видимость >10km
Погода -
Облачность Few Clouds 4500ft
Давление 1011
Изменить No Significant change
Необработанный LERI 181600Z 24011KT 200V280 9999 FEW045 30/17 Q1011 NOSIG

VFR

31°C / 17°C

[Больше]
Ветер 250º variable 230º to 290º 10kt
Видимость >10km
Погода -
Облачность Few Clouds 4500ft
Давление 1011
Изменить No Significant change
Необработанный LERI 181530Z 25010KT 230V290 9999 FEW045 31/17 Q1011 NOSIG

VFR

32°C / 16°C

[Больше]
Ветер 240º variable 200º to 270º 11kt
Видимость >10km
Погода -
Облачность Few Clouds 4800ft
Давление 1011
Изменить No Significant change
Необработанный LERI 181500Z 24011KT 200V270 9999 FEW048 32/16 Q1011 NOSIG

VFR

33°C / 16°C

[Больше]
Ветер 160º variable 080º to 250º 7kt
Видимость >10km
Погода -
Облачность Few Clouds 4500ft
Давление 1011
Изменить No Significant change
Необработанный LERI 181430Z 16007KT 080V250 9999 FEW045 33/16 Q1011 NOSIG

VFR

32°C / 16°C

[Больше]
Ветер 130º variable 070º to 170º 9kt
Видимость >10km
Погода -
Облачность Few Clouds 4500ft
Давление 1012
Изменить No Significant change
Необработанный LERI 181400Z 13009KT 070V170 9999 FEW045 32/16 Q1012 NOSIG

VFR

33°C / 16°C

[Больше]
Ветер 130º variable 060º to 170º 6kt Gust 16kt
Видимость >10km
Погода -
Облачность Few Clouds 4200ft
Давление 1012
Изменить No Significant change
Необработанный LERI 181330Z 13006G16KT 060V170 9999 FEW042 33/16 Q1012 NOSIG

VFR

33°C / 16°C

[Больше]
Ветер 100º variable 030º to 170º 7kt
Видимость >10km
Погода -
Облачность Few Clouds 3800ft
Давление 1012
Изменить No Significant change
Необработанный LERI 181300Z 10007KT 030V170 9999 FEW038 33/16 Q1012 NOSIG

VFR

32°C / 15°C

[Больше]
Ветер 40º 2kt
Видимость >10km
Погода -
Облачность Few Clouds 3800ft
Давление 1013
Изменить No Significant change
Необработанный LERI 181230Z 04002KT 9999 FEW038 32/15 Q1013 NOSIG

VFR

31°C / 15°C

[Больше]
Ветер variable 3kt
Видимость >10km
Погода -
Облачность Few Clouds 4000ft
Давление 1013
Изменить No Significant change
Необработанный LERI 181200Z VRB03KT 9999 FEW040 31/15 Q1013 NOSIG

VFR

30°C / 15°C

[Больше]
Ветер variable 2kt
Видимость >10km
Погода -
Облачность Few Clouds 4000ft
Давление 1013
Изменить No Significant change
Необработанный LERI 181130Z VRB02KT 9999 FEW040 30/15 Q1013 NOSIG

VFR

29°C / 15°C

[Больше]
Ветер 130º 2kt
Видимость >10km
Погода -
Облачность Few Clouds 3800ft
Давление 1014
Изменить No Significant change
Необработанный LERI 181100Z 13002KT 9999 FEW038 29/15 Q1014 NOSIG

VFR

28°C / 15°C

[Больше]
Ветер variable 3kt
Видимость >10km
Погода -
Облачность Few Clouds 3800ft
Давление 1014
Изменить No Significant change
Необработанный LERI 181030Z VRB03KT 9999 FEW038 28/15 Q1014 NOSIG

VFR

27°C / 15°C

[Больше]
Ветер variable 1kt
Видимость >10km
Погода -
Облачность Few Clouds 3600ft
Давление 1014
Изменить No Significant change
Необработанный LERI 181000Z VRB01KT 9999 FEW036 27/15 Q1014 NOSIG

VFR

26°C / 16°C

[Больше]
Ветер variable 2kt
Видимость >10km
Погода -
Облачность Few Clouds 4400ft
Давление 1015
Изменить No Significant change
Необработанный LERI 180930Z VRB02KT 9999 FEW044 26/16 Q1015 NOSIG

VFR

25°C / 17°C

[Больше]
Ветер variable 2kt
Видимость >10km
Погода -
Облачность Few Clouds 4200ft
Давление 1015
Изменить No Significant change
Необработанный LERI 180900Z VRB02KT 9999 FEW042TCU 25/17 Q1015 NOSIG

VFR

24°C / 17°C

[Больше]
Ветер variable 1kt
Видимость >10km
Погода -
Облачность Few Clouds 4200ft
Давление 1014
Изменить No Significant change
Необработанный LERI 180830Z VRB01KT 9999 FEW042TCU 24/17 Q1014 NOSIG

TAF для Алькантарилья (LERI)

From till


Maximum Temperature 29ºC on . Minimum Temperature 18ºC on .
From till Wind 20º 5kt. Visibility 10km or more. Scattered Clouds 3500ft.
With 30% probability, Temporarly from till Broken Clouds 1200ft.
Becoming from till Wind 80º 10kt. Visibility 10km or more. Scattered Clouds 3500ft.
Becoming from till Wind 280º 3kt. Visibility 10km or more. Scattered Clouds 3500ft.
With 40% probability, Temporarly from till Broken Clouds 1200ft.

Необработанный: TAF LERI 190500Z 1906/2006 02005KT 9999 SCT035 TX29/1914Z TN18/1906Z PROB30 TEMPO 1906/1908 BKN012 BECMG 1907/1909 08010KT BECMG 1919/1921 28003KT PROB40 TEMPO 1923/2006 BKN012

Текущие спутниковые изображения и снимки дождя для Алькантарилья, Испания

Указатель местности находится на Алькантарилья. [Больше]

Спутниковое изображение в реальном времени сочетает в себе видимый свет в дневное время с инфракрасным излучением в ночное время. Ночью изображение получается не темным, так как инфракрасное излучение может обнаружить разницу температур. К сожалению, низкие облака и туман трудно отличить от температуры у поверхности земли и поэтому могут быть почти незаметны ночью. Спутниковые снимки Meteosat для Европы обновляются каждые 5 минут в режиме реального времени.Снимки GOES-16/GOES-17 (Северная и Южная Америка) и Химавари (Азия) обновляются каждые 10 минут.

Вероятность осадков оценивается по данным радиолокаторов и спутников. Спутниковые данные о возможности осадков в ночное время менее точные, чем дневные данные. Оранжевыми крестами отмечаются места,где обнаруживается молния (болееЕвропа).

Копирайт 2021 EUMETSAT / meteoblue. Данные о молниях предоставляются со стороны nowcast.

Радар Алькантарилья

Морось
Незначительные
Умеренные
Сильные
Очень Сильные
Град

Индикатор местности находится на Алькантарилья. Эта анимация показывает радар осадков за последний 1 час. Морось или небольшой снег могут быть невидимы для радара. Интенсивность осадков имеет цветовую кодировку - от светло-голубого до оранжевого.
Radar data source: AEMET.

Погода в настоящий момент и предупреждения

EUMETNET – MeteoAlarm

pictomap

Источник: AEMET

Возможны временные задержки между сведениями данного веб сайта и веб сайта www.meteoalarm.eu, для получения наиболее недавней информации о сигнальных уровнях, публикуемых со стороны National Meteorological Services, полжалуйста, используйте www.meteoalarm.eu.